Time;durP1;ratioP1;P1;durP2;ratioP2;P2;SDS_P1;SDS_P2;PMS_P1;PMS_P2;Temp;Humidity;BMP_temperature;BMP_pressure;BME280_temperature;BME280_humidity;BME280_pressure;Samples;Min_cycle;Max_cycle;Signal;HPM_P1;HPM_P2
2020/12/10 06:57:58;;;;;;;15.30;8.13;;;;;;;9.26;100.00;101140.93;1815145;78;22641;-77
2020/12/10 07:00:46;;;;;;;17.75;9.03;;;;;;;9.24;100.00;101140.19;1787831;80;21049;-77
2020/12/10 07:03:22;;;;;;;15.68;8.83;;;;;;;9.25;100.00;101128.47;1788001;80;21136;-75
2020/12/10 07:05:48;;;;;;;13.75;9.50;;;;;;;9.26;100.00;101127.98;1777041;79;21296;-76
2020/12/10 07:08:18;;;;;;;17.95;9.13;;;;;;;9.28;100.00;101132.19;1783054;80;20988;-78
2020/12/10 07:10:51;;;;;;;18.35;9.50;;;;;;;9.31;100.00;101126.01;1719389;83;21244;-76
2020/12/10 07:13:32;;;;;;;15.30;8.85;;;;;;;9.33;100.00;101130.18;1709200;83;21058;-76
2020/12/10 07:15:59;;;;;;;19.77;10.78;;;;;;;9.36;100.00;101126.13;1740064;81;21203;-77
2020/12/10 07:18:28;;;;;;;17.10;10.65;;;;;;;9.39;100.00;101124.67;1753406;81;21162;-76
2020/12/10 07:20:58;;;;;;;17.50;10.40;;;;;;;9.44;100.00;101127.02;1752511;81;21068;-75
2020/12/10 07:23:25;;;;;;;22.50;10.98;;;;;;;9.48;100.00;101124.63;1742252;81;21126;-76
2020/12/10 07:25:55;;;;;;;23.15;12.73;;;;;;;9.51;100.00;101116.23;1719786;83;21386;-78
2020/12/10 07:28:23;;;;;;;23.62;14.38;;;;;;;9.55;100.00;101113.86;1724992;83;21258;-78
2020/12/10 07:30:51;;;;;;;25.62;14.30;;;;;;;9.58;100.00;101114.98;1728189;83;21089;-78
2020/12/10 07:33:21;;;;;;;20.90;12.98;;;;;;;9.60;100.00;101119.25;1724973;83;21615;-77
2020/12/10 07:35:52;;;;;;;25.17;13.60;;;;;;;9.62;100.00;101114.81;1728470;83;21124;-77
2020/12/10 07:38:20;;;;;;;20.43;11.60;;;;;;;9.66;100.00;101111.14;1725035;82;21180;-77
2020/12/10 07:40:54;;;;;;;20.75;12.20;;;;;;;9.69;100.00;101104.49;1728072;83;21210;-77
2020/12/10 07:43:26;;;;;;;22.00;12.13;;;;;;;9.73;100.00;101108.59;1724964;83;21666;-77
2020/12/10 07:45:54;;;;;;;19.67;10.60;;;;;;;9.78;100.00;101115.19;1728230;83;21224;-77
2020/12/10 07:48:23;;;;;;;22.37;11.10;;;;;;;9.81;100.00;101116.77;1724817;83;21125;-78
2020/12/10 07:50:53;;;;;;;19.20;10.98;;;;;;;9.83;100.00;101114.91;1728103;83;21228;-81
2020/12/10 07:53:22;;;;;;;20.77;11.90;;;;;;;9.87;100.00;101112.53;1724733;83;21209;-77
2020/12/10 07:55:58;;;;;;;17.27;11.40;;;;;;;9.90;100.00;101104.13;1714578;82;21233;-77
2020/12/10 07:58:36;;;;;;;22.95;12.40;;;;;;;9.93;100.00;101105.25;1712076;83;21209;-76
2020/12/10 08:01:11;;;;;;;18.95;10.65;;;;;;;9.97;100.00;101100.73;1778462;80;22146;-77
2020/12/10 08:03:53;;;;;;;22.05;10.40;;;;;;;10.01;100.00;101096.59;1778610;80;21117;-77
2020/12/10 08:06:21;;;;;;;20.10;10.98;;;;;;;10.07;100.00;101095.41;1778820;80;21366;-78
2020/12/10 08:08:58;;;;;;;22.22;11.22;;;;;;;10.09;100.00;101091.80;1778213;80;21137;-78
2020/12/10 08:11:22;;;;;;;19.50;10.98;;;;;;;10.12;100.00;101094.67;1777274;80;21010;-75
2020/12/10 08:14:08;;;;;;;20.30;10.18;;;;;;;10.15;100.00;101096.31;1778167;80;21030;-78
2020/12/10 08:16:45;;;;;;;19.27;10.78;;;;;;;10.19;100.00;101095.19;1777798;80;20931;-78
2020/12/10 08:19:21;;;;;;;21.42;10.70;;;;;;;10.22;100.00;101089.36;1777939;80;21207;-77
2020/12/10 08:21:50;;;;;;;19.82;10.23;;;;;;;10.22;100.00;101085.47;1711260;83;21046;-75
2020/12/10 08:24:41;;;;;;;22.13;10.70;;;;;;;10.22;100.00;101089.36;1777647;80;21522;-76
2020/12/10 08:27:12;;;;;;;17.70;10.60;;;;;;;10.22;100.00;101074.26;1711479;83;21616;-75
2020/12/10 08:29:59;;;;;;;20.30;10.80;;;;;;;10.23;100.00;101072.89;1777725;80;21173;-76
2020/12/10 08:32:27;;;;;;;22.35;11.48;;;;;;;10.22;100.00;101067.32;1711649;83;21703;-77
2020/12/10 08:35:08;;;;;;;18.50;10.93;;;;;;;10.26;100.00;101070.11;1710811;83;21097;-78
2020/12/10 08:37:38;;;;;;;22.67;11.10;;;;;;;10.28;100.00;101075.20;1777781;80;21652;-77
2020/12/10 08:40:06;;;;;;;20.05;10.45;;;;;;;10.31;100.00;101058.16;1778093;80;20953;-77
2020/12/10 08:42:34;;;;;;;21.15;11.10;;;;;;;10.34;100.00;101063.20;1777894;80;21214;-79
2020/12/10 08:45:02;;;;;;;19.23;10.95;;;;;;;10.36;100.00;101054.39;1778247;80;22137;-81
2020/12/10 08:47:32;;;;;;;23.02;11.33;;;;;;;10.37;100.00;101056.04;1710577;83;21120;-77
2020/12/10 08:50:23;;;;;;;17.17;10.93;;;;;;;10.39;100.00;101052.08;1711779;83;21590;-78
2020/12/10 08:53:05;;;;;;;21.75;12.10;;;;;;;10.39;100.00;101058.10;1778164;80;21026;-80
2020/12/10 08:55:49;;;;;;;16.97;11.10;;;;;;;10.44;100.00;101053.92;1777950;80;21224;-77
2020/12/10 08:58:25;;;;;;;21.17;12.13;;;;;;;10.45;100.00;101051.25;1707090;83;21425;-80
2020/12/10 09:00:55;;;;;;;28.27;15.28;;;;;;;10.45;100.00;101053.84;1757628;80;21191;-79
2020/12/10 09:03:24;;;;;;;19.25;11.88;;;;;;;10.45;100.00;101060.33;1766568;80;21174;-79
2020/12/10 09:05:52;;;;;;;26.12;13.35;;;;;;;10.48;100.00;101055.41;1701006;84;21216;-78
2020/12/10 09:08:20;;;;;;;22.25;12.07;;;;;;;10.52;100.00;101051.72;1767576;80;21593;-81
2020/12/10 09:10:48;;;;;;;24.00;13.03;;;;;;;10.54;100.00;101044.21;1767445;80;21201;-79
2020/12/10 09:13:17;;;;;;;22.07;11.70;;;;;;;10.53;100.00;101045.59;1700711;84;21236;-80
2020/12/10 09:15:46;;;;;;;22.15;13.10;;;;;;;10.52;100.00;101044.78;1767014;81;21193;-77
2020/12/10 09:18:14;;;;;;;23.87;11.83;;;;;;;10.54;100.00;101042.91;1766977;80;21065;-82
2020/12/10 09:20:42;;;;;;;26.50;12.80;;;;;;;10.60;100.00;101042.55;1767422;80;21118;-79
2020/12/10 09:23:10;;;;;;;18.23;10.75;;;;;;;10.65;100.00;101040.14;1767505;80;22313;-79
2020/12/10 09:25:39;;;;;;;18.17;11.10;;;;;;;10.68;100.00;101041.26;1767340;80;21609;-79
2020/12/10 09:28:09;;;;;;;22.40;11.03;;;;;;;10.69;100.00;101035.15;1767461;80;21002;-83
2020/12/10 09:30:38;;;;;;;20.32;11.43;;;;;;;10.71;100.00;101042.37;1774379;80;21042;-80
2020/12/10 09:33:08;;;;;;;17.77;11.30;;;;;;;10.77;100.00;101036.34;1773949;80;21172;-81
2020/12/10 09:35:39;;;;;;;18.87;12.28;;;;;;;10.78;100.00;101039.31;1773858;80;21304;-78
2020/12/10 09:38:08;;;;;;;20.70;10.65;;;;;;;10.78;100.00;101029.39;1773921;80;21090;-79
2020/12/10 09:40:36;;;;;;;18.32;11.15;;;;;;;10.78;100.00;101023.74;1774778;80;21157;-84
2020/12/10 09:43:04;;;;;;;20.80;10.45;;;;;;;10.82;100.00;101026.50;1771360;80;21485;-81
2020/12/10 09:45:33;;;;;;;21.90;11.12;;;;;;;10.87;100.00;101034.02;1756803;80;21094;-80
2020/12/10 09:48:01;;;;;;;18.00;10.00;;;;;;;10.91;100.00;101025.93;1742651;82;21203;-79
2020/12/10 09:50:35;;;;;;;16.52;10.05;;;;;;;10.94;100.00;101025.77;1762318;81;21213;-80
2020/12/10 09:58:44;;;;;;;21.95;11.30;;;;;;;10.96;100.00;101018.70;1935644;73;21678;-79
2020/12/10 10:01:11;;;;;;;19.02;10.93;;;;;;;10.96;100.00;101016.11;1934962;73;22268;-80
2020/12/10 10:03:45;;;;;;;22.75;11.57;;;;;;;10.98;100.00;101019.90;1934933;73;20948;-80
2020/12/10 10:06:13;;;;;;;25.08;12.70;;;;;;;10.97;100.00;101021.69;1935526;73;21453;-85
2020/12/10 10:08:41;;;;;;;20.25;9.53;;;;;;;10.93;100.00;101016.77;1935150;73;21141;-82
2020/12/10 10:11:09;;;;;;;16.48;9.58;;;;;;;10.89;100.00;101021.31;1935239;73;21056;-78
2020/12/10 10:13:37;;;;;;;23.52;11.48;;;;;;;10.88;100.00;101015.73;1935095;73;21162;-81
2020/12/10 10:16:05;;;;;;;22.60;11.43;;;;;;;10.86;100.00;101020.66;1935209;73;21629;-86
2020/12/10 10:18:32;;;;;;;17.82;9.33;;;;;;;10.85;100.00;101025.50;1934583;73;20869;-88
2020/12/10 10:21:01;;;;;;;20.02;9.50;;;;;;;10.82;100.00;101016.57;1934582;73;21004;-84
2020/12/10 10:23:30;;;;;;;17.42;9.18;;;;;;;10.81;100.00;101009.73;1934489;73;21154;-81
2020/12/10 10:26:00;;;;;;;15.25;9.25;;;;;;;10.82;100.00;101015.27;1935231;73;21075;-81
2020/12/10 10:28:27;;;;;;;17.77;9.60;;;;;;;10.80;100.00;101014.55;1932290;73;21124;-79
2020/12/10 10:30:55;;;;;;;18.87;8.70;;;;;;;10.79;100.00;101017.60;1921998;74;21016;-84
2020/12/10 10:33:23;;;;;;;20.95;9.85;;;;;;;10.80;100.00;101011.95;1846694;77;21476;-80
2020/12/10 10:35:53;;;;;;;21.62;9.85;;;;;;;10.77;100.00;101011.68;1867043;76;21191;-79
2020/12/10 10:38:21;;;;;;;21.42;9.70;;;;;;;10.78;100.00;101012.52;1846227;76;21258;-80
2020/12/10 10:40:50;;;;;;;18.30;8.98;;;;;;;10.77;100.00;101016.03;1872138;76;21124;-80
2020/12/10 10:43:18;;;;;;;17.10;8.68;;;;;;;10.79;100.00;101012.41;1865130;76;21650;-80
2020/12/10 10:45:47;;;;;;;13.88;7.65;;;;;;;10.83;100.00;101015.20;1856227;76;21171;-80
2020/12/10 10:48:17;;;;;;;24.12;9.43;;;;;;;10.85;100.00;101012.03;1855696;76;21124;-79
2020/12/10 10:50:46;;;;;;;20.17;9.08;;;;;;;10.88;100.00;101013.63;1855027;77;22074;-82
2020/12/10 10:53:14;;;;;;;24.40;10.08;;;;;;;10.85;100.00;101005.54;1855137;77;21611;-77
2020/12/10 10:55:41;;;;;;;22.30;10.15;;;;;;;10.84;100.00;101000.00;1856173;76;20890;-82
2020/12/10 10:58:10;;;;;;;17.60;9.78;;;;;;;10.80;100.00;101001.11;1856362;77;21473;-84
2020/12/10 11:00:49;;;;;;;17.48;9.10;;;;;;;10.77;100.00;101006.48;1856155;76;21629;-78
2020/12/10 11:03:17;;;;;;;16.10;8.58;;;;;;;10.76;100.00;101009.16;1856819;76;21349;-81
2020/12/10 11:05:46;;;;;;;15.28;9.33;;;;;;;10.78;100.00;101007.33;1840781;77;20981;-82
2020/12/10 11:08:13;;;;;;;20.45;8.70;;;;;;;10.79;100.00;101006.37;1856272;77;21170;-80
2020/12/10 11:10:42;;;;;;;20.75;9.30;;;;;;;10.78;100.00;101004.27;1852041;77;20918;-80
2020/12/10 11:13:11;;;;;;;15.55;8.45;;;;;;;10.78;100.00;101003.44;1856190;77;21467;-77
2020/12/10 11:15:39;;;;;;;17.62;9.40;;;;;;;10.80;100.00;100995.08;1851896;77;21078;-77
2020/12/10 11:18:10;;;;;;;22.35;9.85;;;;;;;10.81;100.00;100992.41;1843816;77;21681;-78
2020/12/10 11:20:39;;;;;;;19.12;9.63;;;;;;;10.79;100.00;100988.20;1848151;77;21538;-81
2020/12/10 11:23:07;;;;;;;22.15;8.98;;;;;;;10.80;100.00;100993.32;1847751;77;21016;-79
2020/12/10 11:25:39;;;;;;;18.65;9.00;;;;;;;10.85;100.00;100996.95;1847896;77;21583;-79
2020/12/10 11:28:07;;;;;;;20.43;9.70;;;;;;;10.89;100.00;100991.91;1847779;77;21338;-83
2020/12/10 11:30:35;;;;;;;22.55;9.50;;;;;;;10.89;100.00;100991.91;1847436;77;21041;-80
2020/12/10 11:33:03;;;;;;;18.42;9.43;;;;;;;10.90;100.00;100992.29;1848092;77;21009;-83
2020/12/10 11:35:31;;;;;;;20.20;9.15;;;;;;;10.93;100.00;100993.39;1847600;77;20906;-83
2020/12/10 11:37:59;;;;;;;17.85;9.53;;;;;;;10.91;100.00;100988.28;1848014;77;21089;-82
2020/12/10 11:40:32;;;;;;;18.92;9.63;;;;;;;10.93;100.00;100988.20;1848017;77;22255;-81
2020/12/10 11:43:01;;;;;;;20.92;9.70;;;;;;;10.91;100.00;100988.28;1847781;77;21503;-81
2020/12/10 11:45:29;;;;;;;23.38;9.78;;;;;;;10.92;100.00;100995.16;1817059;77;21025;-83
2020/12/10 11:48:02;;;;;;;19.40;9.60;;;;;;;10.98;100.00;100995.23;1847962;77;21008;-80
2020/12/10 11:50:27;;;;;;;22.55;9.20;;;;;;;11.04;100.00;100994.38;1847372;77;21014;-81
2020/12/10 11:52:55;;;;;;;22.22;9.80;;;;;;;11.12;100.00;100998.65;1847631;77;21350;-82
2020/12/10 11:55:22;;;;;;;23.25;9.65;;;;;;;11.19;100.00;100993.91;1849121;77;21037;-81
2020/12/10 11:57:51;;;;;;;18.48;9.73;;;;;;;11.26;100.00;100994.34;1850572;77;21140;-80
2020/12/10 12:00:20;;;;;;;14.90;8.93;;;;;;;11.30;100.00;100984.95;1851051;77;21453;-85
2020/12/10 12:02:51;;;;;;;28.62;10.43;;;;;;;11.30;100.00;100984.11;1852710;76;21089;-82
2020/12/10 12:05:19;;;;;;;18.02;9.40;;;;;;;11.24;100.00;100987.94;1858871;77;21188;-81
2020/12/10 12:07:48;;;;;;;15.48;8.90;;;;;;;11.19;100.00;100990.00;1868157;76;21001;-81
2020/12/10 12:10:18;;;;;;;17.37;9.15;;;;;;;11.20;100.00;100991.65;1858156;77;21476;-82
2020/12/10 12:12:46;;;;;;;19.95;9.78;;;;;;;11.18;100.00;100992.69;1868216;76;20958;-86
2020/12/10 12:15:14;;;;;;;21.17;10.00;;;;;;;11.13;100.00;100984.74;1858268;77;21060;-82
2020/12/10 12:17:44;;;;;;;19.55;9.35;;;;;;;11.14;100.00;100988.98;1868325;76;21188;-81
2020/12/10 12:20:13;;;;;;;21.62;8.98;;;;;;;11.18;100.00;100990.09;1858514;77;20970;-82
2020/12/10 12:22:42;;;;;;;27.30;9.85;;;;;;;11.20;100.00;100989.55;1868333;76;21021;-82
2020/12/10 12:25:10;;;;;;;22.37;10.55;;;;;;;11.24;100.00;100984.50;1858566;77;21397;-80
2020/12/10 12:27:39;;;;;;;23.55;10.00;;;;;;;11.27;100.00;100994.70;1868474;76;21578;-84
2020/12/10 12:30:07;;;;;;;24.40;10.50;;;;;;;11.29;100.00;100993.69;1858417;77;21119;-81
2020/12/10 12:32:36;;;;;;;22.70;11.08;;;;;;;11.31;100.00;100991.81;1868048;76;21101;-80
2020/12/10 12:35:04;;;;;;;23.40;10.63;;;;;;;11.35;100.00;100988.10;1827700;77;21258;-78
2020/12/10 12:37:32;;;;;;;22.22;11.20;;;;;;;11.38;100.00;100994.40;1860145;77;21490;-82
2020/12/10 12:40:00;;;;;;;20.05;9.65;;;;;;;11.39;100.00;100998.64;1891955;75;21572;-83
2020/12/10 12:42:28;;;;;;;21.60;9.00;;;;;;;11.41;100.00;100994.20;1891337;75;21549;-81
2020/12/10 12:44:56;;;;;;;18.15;9.00;;;;;;;11.45;100.00;100998.73;1890548;75;21159;-80
2020/12/10 12:47:24;;;;;;;25.43;10.18;;;;;;;11.48;100.00;100996.78;1890777;75;21157;-81
2020/12/10 12:49:55;;;;;;;21.07;9.70;;;;;;;11.48;100.00;100995.94;1893666;74;21004;-82
2020/12/10 12:52:26;;;;;;;19.70;8.75;;;;;;;11.48;100.00;100994.19;1858337;77;21261;-81
2020/12/10 12:54:55;;;;;;;21.62;9.40;;;;;;;11.45;100.00;101001.34;1889569;75;21245;-79
2020/12/10 12:57:22;;;;;;;22.22;9.80;;;;;;;11.42;100.00;100999.74;1893927;75;21483;-77
2020/12/10 12:59:51;;;;;;;21.05;10.20;;;;;;;11.40;100.00;100995.58;1858905;77;20981;-79
2020/12/10 13:02:19;;;;;;;22.27;12.00;;;;;;;11.35;100.00;100993.76;1893788;75;20925;-79
2020/12/10 13:04:47;;;;;;;18.45;9.95;;;;;;;11.32;100.00;100989.59;1859311;76;20973;-80
2020/12/10 13:07:15;;;;;;;20.65;10.60;;;;;;;11.31;100.00;100990.52;1858957;77;22105;-79
2020/12/10 13:09:43;;;;;;;25.80;11.15;;;;;;;11.26;100.00;100986.55;1893888;75;21053;-79
2020/12/10 13:12:14;;;;;;;17.25;10.45;;;;;;;11.20;100.00;100987.75;1858724;76;21141;-79
2020/12/10 13:14:47;;;;;;;19.67;10.45;;;;;;;11.15;100.00;100984.62;1893973;75;21069;-79
2020/12/10 13:17:15;;;;;;;21.75;10.85;;;;;;;11.16;100.00;100988.91;1858658;76;21001;-80
2020/12/10 13:19:44;;;;;;;21.87;10.90;;;;;;;11.19;100.00;100995.66;1893928;75;22120;-77
2020/12/10 13:22:12;;;;;;;28.67;11.28;;;;;;;11.23;100.00;100992.75;1859244;77;21500;-79
2020/12/10 13:24:40;;;;;;;21.10;10.45;;;;;;;11.30;100.00;100995.80;1893834;75;21175;-77
2020/12/10 13:27:10;;;;;;;26.60;10.98;;;;;;;11.32;100.00;100989.59;1852326;77;21462;-79
2020/12/10 13:29:39;;;;;;;22.27;10.10;;;;;;;11.33;100.00;100993.84;1833226;77;21549;-79
2020/12/10 13:32:07;;;;;;;18.55;9.33;;;;;;;11.33;100.00;100992.55;1829302;78;21337;-80
2020/12/10 13:34:35;;;;;;;19.40;9.90;;;;;;;11.34;100.00;100995.98;1829316;78;21044;-79
2020/12/10 13:37:03;;;;;;;27.45;11.83;;;;;;;11.33;100.00;101005.99;1829399;78;21466;-79
2020/12/10 13:39:32;;;;;;;17.65;9.45;;;;;;;11.33;100.00;101002.09;1829634;78;21674;-77
2020/12/10 13:42:00;;;;;;;20.32;10.63;;;;;;;11.33;100.00;101000.80;1829429;78;21052;-78
2020/12/10 13:44:29;;;;;;;22.98;10.35;;;;;;;11.32;100.00;100998.69;1829543;77;22397;-79
2020/12/10 13:46:57;;;;;;;20.43;9.68;;;;;;;11.29;100.00;100993.69;1829134;78;21230;-79
2020/12/10 13:49:25;;;;;;;21.62;9.73;;;;;;;11.28;100.00;100995.08;1828733;78;21147;-79
2020/12/10 13:51:53;;;;;;;19.40;9.35;;;;;;;11.25;100.00;100996.11;1829476;78;21551;-79
2020/12/10 13:54:21;;;;;;;18.55;9.78;;;;;;;11.24;100.00;100996.19;1829475;78;20918;-80
2020/12/10 13:56:50;;;;;;;21.50;9.75;;;;;;;11.26;100.00;100996.48;1821214;78;21187;-79
2020/12/10 13:59:19;;;;;;;22.62;10.43;;;;;;;11.23;100.00;100994.55;1819147;78;21104;-79
2020/12/10 14:01:47;;;;;;;24.67;10.60;;;;;;;11.22;100.00;100996.30;1818736;77;21277;-79
2020/12/10 14:04:14;;;;;;;31.40;11.48;;;;;;;11.22;100.00;100994.17;1818866;78;21603;-78
2020/12/10 14:06:42;;;;;;;24.70;12.15;;;;;;;11.21;100.00;101001.12;1819277;77;21460;-78
2020/12/10 14:09:10;;;;;;;25.37;12.55;;;;;;;11.19;100.00;101003.45;1819187;78;21186;-78
2020/12/10 14:11:40;;;;;;;27.17;13.13;;;;;;;11.15;100.00;101010.14;1817465;78;21290;-79
2020/12/10 14:14:08;;;;;;;22.87;11.70;;;;;;;11.13;100.00;101008.12;1818101;77;21203;-78
2020/12/10 14:16:39;;;;;;;22.13;11.63;;;;;;;11.10;100.00;101009.58;1818550;77;21215;-80
2020/12/10 14:19:07;;;;;;;24.43;12.35;;;;;;;11.10;100.00;101004.88;1818271;78;21164;-78
2020/12/10 14:21:35;;;;;;;31.02;13.85;;;;;;;11.09;100.00;101001.90;1818594;77;21184;-78
2020/12/10 14:24:05;;;;;;;29.23;13.55;;;;;;;11.06;100.00;101004.23;1819050;78;21060;-81
2020/12/10 14:26:33;;;;;;;31.52;14.75;;;;;;;11.02;100.00;101001.91;1819312;78;21095;-80
2020/12/10 14:29:01;;;;;;;26.97;14.95;;;;;;;10.98;100.00;100997.36;1819368;78;21099;-78
2020/12/10 14:31:29;;;;;;;24.63;14.20;;;;;;;10.94;100.00;101002.41;1819288;78;21064;-78
2020/12/10 14:33:57;;;;;;;30.40;14.60;;;;;;;10.90;100.00;100999.62;1819396;78;21176;-78
2020/12/10 14:36:26;;;;;;;26.57;15.72;;;;;;;10.86;100.00;100996.00;1818887;77;21147;-79
2020/12/10 14:38:54;;;;;;;25.00;14.33;;;;;;;10.83;100.00;101000.92;1819090;77;21115;-80
2020/12/10 14:41:22;;;;;;;30.95;15.65;;;;;;;10.82;100.00;100996.64;1818533;78;21126;-80
2020/12/10 14:43:50;;;;;;;21.82;12.53;;;;;;;10.81;100.00;100992.41;1819301;77;20913;-79
2020/12/10 14:46:18;;;;;;;23.90;13.45;;;;;;;10.79;100.00;100991.64;1819113;77;22183;-79
2020/12/10 14:48:47;;;;;;;28.40;12.98;;;;;;;10.75;100.00;100990.19;1819290;77;21572;-81
2020/12/10 14:51:17;;;;;;;23.70;12.68;;;;;;;10.72;100.00;100991.64;1819398;78;21151;-79
2020/12/10 14:53:45;;;;;;;29.23;13.22;;;;;;;10.70;100.00;100991.38;1819440;78;21061;-81
2020/12/10 14:56:22;;;;;;;24.67;13.15;;;;;;;10.69;100.00;100998.81;1819410;78;20997;-81
2020/12/10 14:58:51;;;;;;;25.70;14.45;;;;;;;10.65;100.00;100997.32;1819421;78;21790;-80
2020/12/10 15:01:28;;;;;;;26.00;14.95;;;;;;;10.62;100.00;100993.16;1819137;77;21065;-79
2020/12/10 15:03:56;;;;;;;31.33;14.83;;;;;;;10.58;100.00;100997.70;1819027;78;20978;-79
2020/12/10 15:06:24;;;;;;;30.02;15.90;;;;;;;10.54;100.00;101003.15;1819349;77;21705;-79
2020/12/10 15:08:53;;;;;;;35.38;16.00;;;;;;;10.52;100.00;101001.12;1819741;77;21682;-79
2020/12/10 15:11:24;;;;;;;27.15;17.98;;;;;;;10.50;100.00;100999.06;1819471;78;21479;-80
2020/12/10 15:13:52;;;;;;;33.20;18.23;;;;;;;10.48;100.00;100988.80;1819342;78;21072;-80
2020/12/10 15:16:20;;;;;;;28.20;16.57;;;;;;;10.49;100.00;100996.13;1818107;78;21195;-80
2020/12/10 15:18:49;;;;;;;32.55;18.00;;;;;;;10.48;100.00;101001.77;1818714;78;21048;-80
2020/12/10 15:21:19;;;;;;;32.50;19.40;;;;;;;10.47;100.00;101003.98;1819304;77;21181;-81
2020/12/10 15:23:50;;;;;;;32.70;17.82;;;;;;;10.47;100.00;101004.44;1819235;78;21678;-81
2020/12/10 15:26:18;;;;;;;31.90;18.37;;;;;;;10.46;100.00;101002.34;1819390;78;21044;-80
2020/12/10 15:28:48;;;;;;;33.18;18.77;;;;;;;10.44;100.00;101002.87;1819379;78;21112;-80
2020/12/10 15:31:16;;;;;;;29.30;17.75;;;;;;;10.42;100.00;101004.73;1819482;78;21116;-80
2020/12/10 15:33:45;;;;;;;29.87;18.75;;;;;;;10.38;100.00;101006.29;1819457;78;21145;-79
2020/12/10 15:36:13;;;;;;;36.28;19.40;;;;;;;10.35;100.00;101000.83;1819515;78;21344;-80
2020/12/10 15:38:41;;;;;;;30.75;19.52;;;;;;;10.34;100.00;101007.42;1791227;78;21496;-79
2020/12/10 15:41:10;;;;;;;32.03;17.50;;;;;;;10.29;100.00;101001.66;1819635;78;21528;-81
2020/12/10 15:43:38;;;;;;;32.93;15.98;;;;;;;10.27;100.00;101002.22;1819054;78;21626;-81
2020/12/10 15:46:06;;;;;;;26.55;15.03;;;;;;;10.24;100.00;101005.84;1819004;78;21374;-81
2020/12/10 15:48:34;;;;;;;28.10;15.32;;;;;;;10.22;100.00;101010.26;1820183;77;21175;-81
2020/12/10 15:51:06;;;;;;;30.77;17.23;;;;;;;10.21;100.00;101011.17;1841934;76;21189;-81
2020/12/10 15:53:36;;;;;;;29.32;15.80;;;;;;;10.22;100.00;101005.07;1837156;77;21117;-83
2020/12/10 15:56:09;;;;;;;24.25;14.70;;;;;;;10.21;100.00;101007.77;1839664;77;21267;-83
2020/12/10 15:58:53;;;;;;;26.73;15.60;;;;;;;10.24;100.00;101014.08;1839740;77;21185;-82
2020/12/10 16:01:21;;;;;;;33.03;16.70;;;;;;;10.26;100.00;101002.68;1828055;75;21495;-81
2020/12/10 16:03:50;;;;;;;28.98;15.18;;;;;;;10.28;100.00;101004.70;1826832;77;21088;-79
2020/12/10 16:06:20;;;;;;;23.57;13.60;;;;;;;10.29;100.00;101016.77;1827366;77;20926;-79
2020/12/10 16:08:48;;;;;;;25.50;14.47;;;;;;;10.30;100.00;101018.44;1827990;77;21119;-81
2020/12/10 16:11:16;;;;;;;32.70;16.00;;;;;;;10.33;100.00;101023.91;1828107;77;21558;-81
2020/12/10 16:13:44;;;;;;;30.55;15.32;;;;;;;10.35;100.00;101016.39;1832544;77;21118;-80
2020/12/10 16:16:13;;;;;;;29.52;14.55;;;;;;;10.38;100.00;101013.62;1832490;77;20902;-79
2020/12/10 16:18:42;;;;;;;28.55;14.18;;;;;;;10.38;100.00;101013.62;1832770;77;21076;-80
2020/12/10 16:21:10;;;;;;;30.25;14.60;;;;;;;10.39;100.00;101017.05;1853972;76;20914;-81
2020/12/10 16:23:38;;;;;;;29.45;15.18;;;;;;;10.36;100.00;101014.18;1854032;76;21100;-81
2020/12/10 16:26:08;;;;;;;36.83;16.70;;;;;;;10.36;100.00;101011.59;1853960;76;22221;-80
2020/12/10 16:28:36;;;;;;;28.65;15.72;;;;;;;10.37;100.00;101005.45;1826002;77;21147;-81
2020/12/10 16:31:08;;;;;;;26.93;15.20;;;;;;;10.36;100.00;100992.13;1853948;76;21146;-81
2020/12/10 16:33:38;;;;;;;27.67;15.83;;;;;;;10.36;100.00;100991.30;1853700;76;21100;-81
2020/12/10 16:36:15;;;;;;;26.65;15.28;;;;;;;10.32;100.00;100982.86;1853890;76;21069;-79
2020/12/10 16:38:43;;;;;;;32.65;17.42;;;;;;;10.29;100.00;100982.20;1853584;77;21263;-81
2020/12/10 16:41:13;;;;;;;30.55;17.30;;;;;;;10.27;100.00;100978.88;1853913;77;21048;-80
2020/12/10 16:43:41;;;;;;;35.30;17.85;;;;;;;10.27;100.00;100987.50;1825594;77;21513;-81
2020/12/10 16:46:09;;;;;;;31.68;16.40;;;;;;;10.25;100.00;100980.25;1853988;76;21056;-80
2020/12/10 16:48:42;;;;;;;27.95;15.25;;;;;;;10.25;100.00;100979.41;1853812;76;21163;-80
2020/12/10 16:51:11;;;;;;;26.73;15.10;;;;;;;10.24;100.00;100978.60;1854055;76;21473;-81
2020/12/10 16:53:40;;;;;;;26.82;14.98;;;;;;;10.23;100.00;100994.24;1853861;76;20886;-80
2020/12/10 16:56:14;;;;;;;26.60;14.63;;;;;;;10.24;100.00;101014.08;1854555;76;21687;-80
2020/12/10 16:58:43;;;;;;;27.73;14.53;;;;;;;10.26;100.00;101010.91;1864022;76;21150;-79
2020/12/10 17:01:11;;;;;;;24.47;12.90;;;;;;;10.27;100.00;101019.92;1864257;76;20933;-79
2020/12/10 17:03:40;;;;;;;25.97;11.80;;;;;;;10.27;100.00;101025.11;1863890;76;21176;-81
2020/12/10 17:06:14;;;;;;;23.38;11.78;;;;;;;10.26;100.00;101015.64;1859936;77;20945;-81
2020/12/10 17:08:44;;;;;;;23.57;12.03;;;;;;;10.26;100.00;101019.99;1864382;76;21020;-81
2020/12/10 17:11:23;;;;;;;26.82;13.22;;;;;;;10.24;100.00;101015.38;1864265;76;21647;-80
2020/12/10 17:13:51;;;;;;;27.22;13.15;;;;;;;10.24;100.00;101016.67;1864200;76;21226;-81
2020/12/10 17:16:19;;;;;;;23.80;13.40;;;;;;;10.23;100.00;101014.98;1864293;77;22087;-80
2020/12/10 17:18:49;;;;;;;25.65;13.08;;;;;;;10.21;100.00;101021.55;1864185;77;21661;-81
2020/12/10 17:21:21;;;;;;;23.10;12.30;;;;;;;10.20;100.00;101022.49;1864054;77;21139;-81
2020/12/10 17:24:00;;;;;;;23.70;13.08;;;;;;;10.21;100.00;101027.22;1864029;77;20906;-81
2020/12/10 17:26:32;;;;;;;28.30;13.88;;;;;;;10.22;100.00;101026.28;1864264;77;21158;-81
2020/12/10 17:29:00;;;;;;;22.25;13.32;;;;;;;10.21;100.00;101018.15;1864137;77;21511;-81
2020/12/10 17:31:28;;;;;;;20.90;12.55;;;;;;;10.19;100.00;101015.63;1864386;77;20985;-82
2020/12/10 17:33:56;;;;;;;32.98;14.00;;;;;;;10.19;100.00;101011.73;1864085;77;21040;-82
2020/12/10 17:36:27;;;;;;;27.48;13.70;;;;;;;10.20;100.00;101012.12;1864121;77;21051;-82
2020/12/10 17:38:55;;;;;;;27.25;15.10;;;;;;;10.22;100.00;101004.23;1864044;77;21151;-82
2020/12/10 17:41:24;;;;;;;29.07;13.08;;;;;;;10.22;100.00;101008.96;1864251;77;21243;-81
2020/12/10 17:43:53;;;;;;;21.75;12.05;;;;;;;10.21;100.00;101006.48;1864033;77;21441;-82
2020/12/10 17:46:21;;;;;;;24.45;14.03;;;;;;;10.20;100.00;101004.34;1864135;77;20925;-82
2020/12/10 17:48:49;;;;;;;25.92;14.03;;;;;;;10.18;100.00;101003.58;1864140;77;21167;-83
2020/12/10 17:51:17;;;;;;;31.65;15.88;;;;;;;10.18;100.00;101002.77;1864144;77;21555;-79
2020/12/10 17:53:45;;;;;;;25.50;13.43;;;;;;;10.16;100.00;101002.84;1864170;77;21175;-82
2020/12/10 17:56:13;;;;;;;25.10;14.28;;;;;;;10.13;100.00;100997.80;1864062;77;21238;-82
2020/12/10 17:58:42;;;;;;;24.67;13.30;;;;;;;10.13;100.00;101006.04;1864200;77;21262;-82
2020/12/10 18:01:10;;;;;;;22.52;12.03;;;;;;;10.10;100.00;101001.42;1864239;77;21641;-82
2020/12/10 18:03:38;;;;;;;28.12;12.93;;;;;;;10.09;100.00;101002.33;1864076;77;21127;-83
2020/12/10 18:06:09;;;;;;;25.88;14.03;;;;;;;10.08;100.00;100996.77;1864364;77;21174;-82
2020/12/10 18:08:38;;;;;;;;;;;;;;;10.08;100.00;100996.77;1867023;77;20962;-82
2020/12/10 18:11:09;;;;;;;26.10;13.80;;;;;;;10.07;100.00;100992.52;1862574;77;20315;-82
2020/12/10 18:13:37;;;;;;;27.65;13.08;;;;;;;10.03;100.00;100991.48;1864015;76;21119;-81
2020/12/10 18:16:05;;;;;;;36.83;14.07;;;;;;;9.97;100.00;100991.84;1864362;77;21210;-81
2020/12/10 18:18:33;;;;;;;24.25;13.00;;;;;;;9.92;100.00;100993.88;1864445;77;21183;-82